KSZL/SZL METAR and TAF weather

Enter ICAO airport designator
Station Type Date Time Source
KSZL METAR 2020/07/06 18:56 UTC NOAA

KSZL 061856Z AUTO 09005KT 10SM CLR 33/21 A2996 RMK AO2 SLP139 T03260208 $


Station Type Date Time Source
KSZL Decoded METAR 2020/07/06 18:56 UTC NOAA

Whiteman Air Force Base, MO, United States (KSZL) 38-44N 093-33W
Jul 06, 2020 - 02:56 PM EDT / 2020.07.06 1856 UTC
Wind: from the E (090 degrees) at 6 MPH (5 KT):0
Visibility: 10 mile(s):0
Sky conditions: clear
Temperature: 90.7 F (32.6 C)
Heat index: 95.5 F (35.3 C):1
Dew Point: 69.4 F (20.8 C)
Relative Humidity: 49%
Pressure (altimeter): 29.96 in. Hg (1014 hPa)
ob: KSZL 061856Z AUTO 09005KT 10SM CLR 33/21 A2996 RMK AO2 SLP139 T03260208
cycle: 19

Station Type Date Time Source
KSZL TAF 2020/07/04 19:20 UTC NOAA

TAF
AMD KSZL 042310Z 0419/0601 09009KT 9999 BKN050 QNH2991INS
BECMG 0506/0507 09009KT 9999 BKN030 BKN070 QNH2995INS TX30/0521Z TN22/0511Z LAST NO
AMDS AFT 0419 NEXT 0711

Example: see airport list